createdAt,value
2019-01-06T00:01:27.458Z,15.07
2019-01-06T00:04:11.532Z,12.17
2019-01-06T00:06:59.610Z,14.77
2019-01-06T00:09:37.562Z,18.20
2019-01-06T00:12:18.815Z,12.50
2019-01-06T00:15:08.731Z,14.63
2019-01-06T00:17:57.102Z,14.70
2019-01-06T00:20:29.137Z,15.10
2019-01-06T00:23:10.162Z,14.23
2019-01-06T00:25:44.829Z,14.43
2019-01-06T00:28:32.953Z,15.67
2019-01-06T00:31:07.634Z,17.47
2019-01-06T00:33:42.626Z,17.30
2019-01-06T00:36:17.394Z,19.03
2019-01-06T00:38:52.281Z,13.40
2019-01-06T00:41:39.553Z,12.63
2019-01-06T00:44:14.382Z,15.80
2019-01-06T00:46:54.966Z,15.50
2019-01-06T00:49:39.179Z,14.10
2019-01-06T00:52:27.918Z,14.80
2019-01-06T00:55:18.211Z,12.77
2019-01-06T00:57:55.860Z,14.40
2019-01-06T01:00:27.975Z,17.23
2019-01-06T01:03:00.026Z,12.53
2019-01-06T01:05:32.042Z,14.83
2019-01-06T01:08:04.070Z,13.97
2019-01-06T01:10:39.187Z,12.77
2019-01-06T01:13:11.206Z,11.47
2019-01-06T01:15:43.228Z,11.30
2019-01-06T01:18:15.246Z,10.63
2019-01-06T01:20:50.239Z,11.77
2019-01-06T01:23:22.226Z,9.93
2019-01-06T01:25:54.293Z,11.33
2019-01-06T01:28:44.392Z,9.57
2019-01-06T01:31:19.074Z,10.43
2019-01-06T01:33:51.078Z,9.87
2019-01-06T01:36:32.730Z,11.50
2019-01-06T01:39:07.523Z,11.73
2019-01-06T01:41:48.361Z,11.27
2019-01-06T01:44:37.658Z,14.23
2019-01-06T01:47:12.616Z,10.87
2019-01-06T01:49:44.656Z,11.97
2019-01-06T01:52:33.028Z,14.17
2019-01-06T01:55:21.911Z,14.77
2019-01-06T01:58:05.926Z,11.63
2019-01-06T02:00:37.975Z,12.67
2019-01-06T02:03:10.046Z,12.30
2019-01-06T02:05:45.026Z,13.00
2019-01-06T02:08:17.047Z,15.33
2019-01-06T02:10:49.360Z,16.63
2019-01-06T02:13:33.535Z,18.00
2019-01-06T02:16:17.780Z,17.10
2019-01-06T02:18:55.846Z,16.87
2019-01-06T02:21:27.879Z,16.10
2019-01-06T02:24:03.031Z,16.07
2019-01-06T02:26:53.079Z,14.30
2019-01-06T02:29:31.326Z,16.97
2019-01-06T02:32:06.428Z,15.47
2019-01-06T02:34:54.818Z,15.97
2019-01-06T02:37:38.801Z,17.07
2019-01-06T02:40:13.626Z,16.27
2019-01-06T02:43:00.637Z,16.93
2019-01-06T02:45:38.693Z,12.77
2019-01-06T02:48:27.080Z,11.23
2019-01-06T02:51:11.286Z,9.70
2019-01-06T02:53:59.782Z,12.33
2019-01-06T02:56:49.729Z,10.13
2019-01-06T02:59:37.156Z,10.43
2019-01-06T03:02:09.172Z,11.47
2019-01-06T03:04:44.240Z,12.07
2019-01-06T03:07:19.058Z,10.47
2019-01-06T03:10:06.039Z,13.20
2019-01-06T03:12:38.068Z,12.67
2019-01-06T03:15:10.184Z,12.17
2019-01-06T03:17:58.245Z,11.67
2019-01-06T03:20:39.525Z,10.50
2019-01-06T03:23:23.090Z,13.50
2019-01-06T03:25:55.132Z,12.50
2019-01-06T03:28:45.400Z,12.47
2019-01-06T03:31:29.599Z,11.10
2019-01-06T03:34:17.262Z,12.87
2019-01-06T03:36:55.235Z,10.80
2019-01-06T03:39:42.835Z,11.87
2019-01-06T03:42:26.754Z,10.90
2019-01-06T03:45:04.434Z,10.90
2019-01-06T03:47:39.684Z,14.30
2019-01-06T03:50:27.298Z,13.80
2019-01-06T03:53:15.722Z,10.93
2019-01-06T03:55:53.266Z,10.23
2019-01-06T03:58:31.274Z,11.87
2019-01-06T04:01:03.405Z,11.00
2019-01-06T04:03:53.636Z,12.27
2019-01-06T04:06:37.803Z,14.20
2019-01-06T04:09:12.468Z,11.93
2019-01-06T04:12:02.973Z,14.80
2019-01-06T04:14:38.081Z,21.70
2019-01-06T04:17:26.225Z,14.77
2019-01-06T04:20:13.758Z,40.00
2019-01-06T04:23:01.038Z,59.27
2019-01-06T04:25:33.053Z,84.30
2019-01-06T04:28:17.386Z,52.77
2019-01-06T04:30:55.330Z,57.43
2019-01-06T04:33:33.462Z,39.07
2019-01-06T04:36:17.271Z,34.43
2019-01-06T04:39:07.286Z,36.00
2019-01-06T04:41:42.035Z,64.50
2019-01-06T04:44:20.696Z,47.30
2019-01-06T04:46:58.705Z,63.73
2019-01-06T04:49:39.698Z,45.37
2019-01-06T04:52:23.656Z,75.40
2019-01-06T04:55:11.722Z,76.93
2019-01-06T04:57:43.751Z,58.67
2019-01-06T05:00:21.732Z,84.17
2019-01-06T05:03:11.832Z,52.47
2019-01-06T05:05:49.658Z,64.17
2019-01-06T05:08:21.695Z,63.80
2019-01-06T05:10:56.126Z,64.47
2019-01-06T05:13:28.163Z,52.33
2019-01-06T05:16:06.204Z,70.20
2019-01-06T05:18:41.345Z,76.47
2019-01-06T05:21:28.375Z,44.27
2019-01-06T05:24:12.128Z,49.63
2019-01-06T05:26:59.347Z,31.20
2019-01-06T05:29:31.650Z,27.20
2019-01-06T05:32:06.675Z,25.03
2019-01-06T05:34:44.323Z,26.77
2019-01-06T05:37:32.780Z,31.23
2019-01-06T05:40:07.760Z,24.93
2019-01-06T05:42:39.886Z,22.33
2019-01-06T05:45:11.929Z,21.03
2019-01-06T05:47:58.944Z,26.43
2019-01-06T05:50:30.987Z,24.97
2019-01-06T05:53:05.945Z,28.03
2019-01-06T05:55:46.721Z,35.87
2019-01-06T05:58:18.749Z,32.23
2019-01-06T06:00:59.440Z,57.03
2019-01-06T06:03:40.685Z,65.47
2019-01-06T06:06:24.158Z,50.97
2019-01-06T06:09:12.491Z,73.20
2019-01-06T06:11:44.521Z,49.33
2019-01-06T06:14:22.563Z,52.00
2019-01-06T06:16:54.590Z,59.97
2019-01-06T06:19:35.121Z,68.77
2019-01-06T06:22:10.042Z,102.20
2019-01-06T06:24:42.089Z,91.47
2019-01-06T06:27:23.497Z,116.00
2019-01-06T06:30:04.547Z,84.43
2019-01-06T06:32:54.598Z,47.53
2019-01-06T06:35:32.602Z,72.40
2019-01-06T06:38:20.975Z,61.70
2019-01-06T06:40:52.999Z,48.57
2019-01-06T06:43:40.258Z,47.37
2019-01-06T06:46:18.212Z,77.37
2019-01-06T06:48:54.763Z,52.83
2019-01-06T06:51:32.745Z,80.23
2019-01-06T06:54:10.598Z,50.67
2019-01-06T06:56:48.809Z,37.67
2019-01-06T06:59:32.679Z,25.27
2019-01-06T07:02:35.426Z,24.30
2019-01-06T07:05:20.330Z,24.87
2019-01-06T07:08:10.405Z,27.40
2019-01-06T07:10:42.424Z,24.30
2019-01-06T07:13:30.777Z,19.83
2019-01-06T07:16:02.803Z,28.23
2019-01-06T07:18:40.535Z,21.70
2019-01-06T07:21:15.771Z,21.77
2019-01-06T07:23:47.809Z,21.10
2019-01-06T07:26:22.952Z,22.27
2019-01-06T07:29:11.403Z,153.40
2019-01-06T07:32:01.659Z,77.07
2019-01-06T07:34:36.272Z,61.00
2019-01-06T07:37:16.886Z,67.17
2019-01-06T07:39:48.925Z,67.37
2019-01-06T07:42:32.823Z,45.43
2019-01-06T07:45:04.866Z,79.00
2019-01-06T07:47:36.892Z,38.80
2019-01-06T07:50:14.639Z,19.33
2019-01-06T07:52:55.568Z,22.23
2019-01-06T07:55:30.516Z,20.83
2019-01-06T07:58:02.552Z,18.97
2019-01-06T08:00:37.513Z,19.47
2019-01-06T08:03:09.559Z,17.93
2019-01-06T08:05:57.946Z,18.53
2019-01-06T08:08:29.979Z,18.30
2019-01-06T08:11:04.929Z,16.57
2019-01-06T08:13:39.873Z,16.23
2019-01-06T08:16:28.257Z,17.87
2019-01-06T08:19:05.992Z,16.23
2019-01-06T08:21:47.089Z,16.00
2019-01-06T08:24:25.095Z,16.33
2019-01-06T08:27:12.852Z,17.63
2019-01-06T08:29:47.854Z,19.23
2019-01-06T08:32:22.834Z,14.07
2019-01-06T08:34:54.887Z,16.33
2019-01-06T08:37:32.733Z,17.27
2019-01-06T08:40:13.523Z,16.67
2019-01-06T08:43:01.699Z,16.80
2019-01-06T08:45:34.365Z,17.20
2019-01-06T08:48:22.739Z,15.27
2019-01-06T08:50:57.462Z,16.90
2019-01-06T08:53:35.159Z,15.87
2019-01-06T08:56:10.119Z,15.47
2019-01-06T08:58:57.345Z,14.60
2019-01-06T09:01:45.509Z,19.27
2019-01-06T09:04:20.482Z,14.90
2019-01-06T09:06:52.520Z,16.70
2019-01-06T09:09:30.496Z,19.47
2019-01-06T09:12:02.535Z,17.10
2019-01-06T09:14:40.496Z,18.43
2019-01-06T09:17:12.539Z,17.73
2019-01-06T09:19:53.427Z,17.77
2019-01-06T09:22:28.385Z,17.33
2019-01-06T09:25:16.748Z,16.73
2019-01-06T09:28:07.063Z,17.20
2019-01-06T09:30:55.513Z,16.50
2019-01-06T09:33:45.558Z,19.07
2019-01-06T09:36:36.036Z,18.63
2019-01-06T09:39:15.183Z,19.40
2019-01-06T09:41:53.212Z,18.27
2019-01-06T09:44:31.166Z,18.30
2019-01-06T09:47:05.935Z,19.27
2019-01-06T09:49:55.940Z,18.60
2019-01-06T09:52:36.745Z,20.27
2019-01-06T09:55:08.778Z,16.60
2019-01-06T09:57:43.254Z,17.73
2019-01-06T10:00:31.699Z,22.83
2019-01-06T10:03:12.748Z,23.23
2019-01-06T10:05:44.773Z,17.97
2019-01-06T10:08:32.928Z,20.37
2019-01-06T10:11:17.161Z,18.07
2019-01-06T10:13:51.642Z,22.40
2019-01-06T10:16:32.560Z,21.63
2019-01-06T10:19:10.513Z,19.73
2019-01-06T10:21:54.512Z,20.93
2019-01-06T10:24:38.197Z,27.37
2019-01-06T10:27:26.569Z,21.93
2019-01-06T10:30:07.638Z,21.83
2019-01-06T10:32:45.640Z,22.73
2019-01-06T10:35:23.404Z,21.20
2019-01-06T10:37:55.424Z,20.20
2019-01-06T10:40:39.366Z,21.50
2019-01-06T10:43:27.943Z,25.63
2019-01-06T10:46:17.968Z,24.03
2019-01-06T10:48:49.986Z,24.50
2019-01-06T10:51:22.101Z,23.20
2019-01-06T10:54:03.242Z,21.63
2019-01-06T10:56:38.239Z,19.57
2019-01-06T10:59:13.020Z,20.43
2019-01-06T11:02:01.174Z,22.33
2019-01-06T11:04:42.102Z,19.17
2019-01-06T11:07:17.521Z,18.07
2019-01-06T11:09:49.543Z,21.23
2019-01-06T11:12:38.009Z,19.73
2019-01-06T11:15:26.399Z,21.80
2019-01-06T11:18:13.399Z,19.13
2019-01-06T11:20:47.825Z,19.90
2019-01-06T11:23:36.073Z,20.37
2019-01-06T11:26:15.687Z,21.27
2019-01-06T11:29:03.241Z,17.33
2019-01-06T11:31:38.095Z,15.57
2019-01-06T11:34:19.244Z,20.43
2019-01-06T11:37:03.546Z,16.47
2019-01-06T11:39:51.638Z,13.17
2019-01-06T11:42:23.683Z,13.97
2019-01-06T11:45:01.542Z,16.03
2019-01-06T11:47:34.052Z,14.43
2019-01-06T11:50:12.497Z,14.20
2019-01-06T11:52:59.523Z,14.17
2019-01-06T11:55:37.604Z,13.40
2019-01-06T11:58:27.566Z,12.10
2019-01-06T12:01:15.833Z,15.07
2019-01-06T12:03:53.752Z,18.10
2019-01-06T12:06:25.786Z,12.53
2019-01-06T12:08:57.842Z,11.20
2019-01-06T12:11:45.763Z,9.40
2019-01-06T12:14:34.117Z,10.53
2019-01-06T12:17:22.619Z,12.97
2019-01-06T12:20:13.195Z,9.90
2019-01-06T12:22:54.079Z,8.03
2019-01-06T12:25:26.124Z,12.33
2019-01-06T12:28:10.267Z,10.03
2019-01-06T12:30:51.540Z,10.57
2019-01-06T12:33:26.536Z,10.03
2019-01-06T12:36:04.651Z,9.33
2019-01-06T12:38:49.073Z,8.53
2019-01-06T12:41:27.482Z,9.17
2019-01-06T12:44:06.314Z,8.67
2019-01-06T12:46:53.859Z,11.60
2019-01-06T12:49:31.642Z,8.20
2019-01-06T12:52:23.697Z,18.23
2019-01-06T12:54:56.045Z,9.07
2019-01-06T12:57:44.733Z,11.03
2019-01-06T13:00:25.697Z,10.07
2019-01-06T13:03:13.842Z,10.70
2019-01-06T13:05:51.595Z,13.73
2019-01-06T13:08:32.946Z,15.80
2019-01-06T13:11:04.973Z,12.87
2019-01-06T13:13:45.952Z,14.50
2019-01-06T13:16:23.871Z,15.87
2019-01-06T13:18:55.917Z,12.70
2019-01-06T13:21:30.616Z,11.27
2019-01-06T13:24:19.126Z,11.77
2019-01-06T13:26:56.840Z,13.07
2019-01-06T13:29:31.851Z,12.17
2019-01-06T13:32:06.942Z,12.07
2019-01-06T13:34:39.824Z,13.90
2019-01-06T13:37:11.837Z,11.13
2019-01-06T13:40:00.365Z,11.93
2019-01-06T13:42:32.458Z,13.00
2019-01-06T13:45:04.478Z,13.47
2019-01-06T13:47:45.640Z,12.60
2019-01-06T13:50:17.648Z,11.60
2019-01-06T13:53:01.772Z,13.43
2019-01-06T13:55:42.937Z,11.87
2019-01-06T13:58:21.507Z,10.40
2019-01-06T14:01:09.894Z,10.67
2019-01-06T14:03:47.885Z,11.17
2019-01-06T14:06:36.199Z,9.10
2019-01-06T14:09:27.219Z,10.60
2019-01-06T14:12:15.278Z,10.43
2019-01-06T14:14:47.282Z,8.77
2019-01-06T14:17:22.014Z,9.60
2019-01-06T14:19:57.383Z,9.90
2019-01-06T14:22:29.407Z,9.50
2019-01-06T14:25:17.499Z,10.80
2019-01-06T14:27:58.114Z,12.03
2019-01-06T14:30:32.870Z,8.20
2019-01-06T14:33:04.941Z,11.23
2019-01-06T14:35:37.324Z,10.73
2019-01-06T14:38:25.779Z,12.67
2019-01-06T14:40:57.814Z,12.90
2019-01-06T14:43:45.855Z,14.33
2019-01-06T14:46:27.010Z,13.53
2019-01-06T14:49:01.718Z,14.17
2019-01-06T14:51:34.086Z,16.70
2019-01-06T14:54:15.224Z,13.50
2019-01-06T14:57:03.292Z,13.97
2019-01-06T14:59:44.436Z,15.40
2019-01-06T15:02:19.829Z,14.60
2019-01-06T15:05:06.739Z,14.40
2019-01-06T15:07:47.550Z,14.57
2019-01-06T15:10:25.799Z,14.20
2019-01-06T15:13:00.925Z,13.77
2019-01-06T15:15:35.636Z,16.13
2019-01-06T15:18:14.104Z,15.43
2019-01-06T15:21:01.404Z,15.40
2019-01-06T15:23:33.420Z,14.60
2019-01-06T15:26:24.010Z,14.97
2019-01-06T15:29:12.443Z,13.87
2019-01-06T15:31:50.044Z,14.57
2019-01-06T15:34:25.020Z,15.47
2019-01-06T15:37:12.169Z,17.13
2019-01-06T15:39:47.118Z,15.90
2019-01-06T15:42:19.152Z,15.27
2019-01-06T15:45:06.293Z,16.47
2019-01-06T15:47:38.323Z,14.10
2019-01-06T15:50:16.269Z,14.50
2019-01-06T15:53:03.617Z,16.40
2019-01-06T15:55:52.170Z,15.77
2019-01-06T15:58:24.185Z,17.97
2019-01-06T16:01:08.387Z,17.73
2019-01-06T16:03:43.318Z,19.00
2019-01-06T16:06:31.661Z,17.40
2019-01-06T16:09:18.835Z,19.10
2019-01-06T16:12:07.057Z,19.80
2019-01-06T16:14:55.383Z,22.60
2019-01-06T16:17:43.736Z,17.60
2019-01-06T16:20:31.903Z,21.60
2019-01-06T16:23:06.378Z,24.00
2019-01-06T16:25:41.291Z,21.20
2019-01-06T16:28:22.901Z,20.53
2019-01-06T16:31:09.902Z,18.70
2019-01-06T16:33:45.062Z,23.50
2019-01-06T16:36:33.535Z,21.43
2019-01-06T16:39:23.325Z,23.93
2019-01-06T16:41:55.344Z,21.23
2019-01-06T16:44:27.388Z,23.27
2019-01-06T16:46:59.412Z,21.80
2019-01-06T16:49:47.588Z,22.90
2019-01-06T16:52:19.607Z,21.90
2019-01-06T16:55:09.363Z,22.47
2019-01-06T16:57:50.285Z,20.53
2019-01-06T17:00:38.613Z,24.03
2019-01-06T17:03:10.652Z,20.77
2019-01-06T17:05:59.141Z,21.17
2019-01-06T17:08:37.257Z,20.93
2019-01-06T17:11:12.211Z,25.83
2019-01-06T17:13:54.890Z,22.10
2019-01-06T17:16:26.957Z,21.90
2019-01-06T17:19:02.067Z,22.50
2019-01-06T17:21:50.127Z,23.53
2019-01-06T17:24:38.471Z,22.40
2019-01-06T17:27:19.500Z,25.00
2019-01-06T17:29:51.533Z,24.57
2019-01-06T17:32:26.483Z,21.50
2019-01-06T17:35:10.680Z,21.50
2019-01-06T17:37:59.171Z,23.10
2019-01-06T17:40:40.416Z,23.03
2019-01-06T17:43:12.818Z,22.10
2019-01-06T17:45:50.426Z,27.30
2019-01-06T17:48:31.851Z,27.03
2019-01-06T17:51:16.013Z,24.47
2019-01-06T17:54:04.357Z,21.60
2019-01-06T17:56:45.219Z,23.50
2019-01-06T17:59:33.102Z,24.53
2019-01-06T18:02:05.269Z,24.63
2019-01-06T18:04:37.275Z,24.40
2019-01-06T18:07:09.697Z,23.57
2019-01-06T18:09:59.850Z,24.27
2019-01-06T18:12:37.644Z,27.17
2019-01-06T18:15:11.305Z,27.07
2019-01-06T18:17:49.288Z,22.73
2019-01-06T18:20:37.469Z,22.97
2019-01-06T18:23:25.822Z,27.07
2019-01-06T18:26:03.995Z,22.73
2019-01-06T18:28:36.011Z,24.10
2019-01-06T18:31:14.234Z,25.57
2019-01-06T18:33:55.376Z,23.33
2019-01-06T18:36:30.122Z,23.77
2019-01-06T18:39:18.486Z,23.23
2019-01-06T18:41:56.430Z,27.40
2019-01-06T18:44:44.996Z,25.77
2019-01-06T18:47:29.105Z,24.93
2019-01-06T18:50:03.815Z,26.63
2019-01-06T18:52:36.381Z,25.67
2019-01-06T18:55:11.225Z,23.83
2019-01-06T18:57:55.506Z,23.20
2019-01-06T19:00:27.597Z,25.90
2019-01-06T19:03:15.825Z,24.53
2019-01-06T19:06:05.856Z,21.87
2019-01-06T19:08:49.951Z,25.83
2019-01-06T19:11:38.278Z,25.07
2019-01-06T19:14:28.573Z,24.40
2019-01-06T19:17:19.023Z,25.10
2019-01-06T19:19:53.927Z,25.27
2019-01-06T19:22:29.517Z,25.17
2019-01-06T19:25:01.644Z,26.77
2019-01-06T19:27:34.902Z,26.17
2019-01-06T19:30:24.484Z,27.77
2019-01-06T19:32:59.488Z,30.53
2019-01-06T19:35:34.807Z,28.93
2019-01-06T19:38:23.178Z,27.90
2019-01-06T19:41:11.759Z,29.07
2019-01-06T19:43:43.820Z,31.70
2019-01-06T19:46:21.566Z,30.37
2019-01-06T19:48:56.603Z,29.13
2019-01-06T19:51:31.281Z,24.07
2019-01-06T19:54:12.312Z,25.33
2019-01-06T19:56:47.557Z,24.93
2019-01-06T19:59:19.611Z,22.87
2019-01-06T20:01:54.576Z,28.97
2019-01-06T20:04:41.520Z,25.53
2019-01-06T20:07:13.756Z,27.23
2019-01-06T20:09:51.613Z,24.23
2019-01-06T20:12:39.469Z,27.30
2019-01-06T20:15:14.520Z,25.90
2019-01-06T20:17:49.506Z,24.70
2019-01-06T20:20:33.107Z,24.27
2019-01-06T20:23:17.381Z,25.30
2019-01-06T20:26:04.360Z,22.00
2019-01-06T20:28:52.791Z,26.77
2019-01-06T20:31:43.199Z,23.67
2019-01-06T20:34:27.196Z,25.63
2019-01-06T20:36:59.293Z,25.30
2019-01-06T20:39:34.296Z,25.37
2019-01-06T20:42:09.116Z,25.30
2019-01-06T20:44:47.088Z,24.07
2019-01-06T20:47:22.341Z,25.90
2019-01-06T20:50:10.930Z,28.00
2019-01-06T20:52:57.938Z,25.07
2019-01-06T20:55:46.392Z,25.27
2019-01-06T20:58:21.585Z,24.03
2019-01-06T21:01:09.734Z,27.33
2019-01-06T21:03:41.768Z,26.20
2019-01-06T21:06:29.038Z,24.77
2019-01-06T21:09:17.530Z,23.97
2019-01-06T21:11:58.686Z,29.37
2019-01-06T21:14:30.729Z,25.47
2019-01-06T21:17:08.758Z,26.23
2019-01-06T21:19:57.184Z,24.20
2019-01-06T21:22:32.613Z,26.13
2019-01-06T21:25:07.502Z,26.90
2019-01-06T21:27:56.189Z,26.17
2019-01-06T21:30:28.575Z,25.47
2019-01-06T21:33:12.857Z,25.33
2019-01-06T21:35:44.930Z,22.53
2019-01-06T21:38:19.901Z,24.50
2019-01-06T21:41:08.245Z,24.90
2019-01-06T21:43:40.279Z,24.20
2019-01-06T21:46:28.474Z,26.00
2019-01-06T21:49:00.513Z,22.70
2019-01-06T21:51:41.381Z,21.50
2019-01-06T21:54:22.385Z,22.00
2019-01-06T21:57:00.185Z,22.70
2019-01-06T21:59:47.219Z,19.37
2019-01-06T22:02:25.371Z,20.93
2019-01-06T22:05:06.199Z,19.63
2019-01-06T22:07:38.243Z,19.73
2019-01-06T22:10:26.691Z,18.23
2019-01-06T22:13:10.703Z,17.93
2019-01-06T22:15:59.113Z,19.53
2019-01-06T22:18:42.892Z,18.97
2019-01-06T22:21:14.928Z,16.77
2019-01-06T22:23:49.949Z,16.70
2019-01-06T22:26:24.723Z,15.60
2019-01-06T22:29:13.124Z,17.20
2019-01-06T22:31:54.398Z,14.47
2019-01-06T22:34:41.420Z,15.23
2019-01-06T22:37:30.286Z,15.93
2019-01-06T22:40:08.429Z,13.30
2019-01-06T22:42:55.521Z,14.20
2019-01-06T22:45:45.776Z,14.00
2019-01-06T22:48:29.594Z,13.80
2019-01-06T22:51:01.919Z,13.83
2019-01-06T22:53:46.164Z,14.63
2019-01-06T22:56:30.261Z,11.60
2019-01-06T22:59:05.225Z,13.10
2019-01-06T23:01:53.340Z,11.03
2019-01-06T23:04:31.127Z,13.00
2019-01-06T23:07:05.809Z,12.07
2019-01-06T23:09:40.828Z,14.63
2019-01-06T23:12:21.825Z,12.60
2019-01-06T23:14:56.763Z,11.37
2019-01-06T23:17:45.105Z,10.57
2019-01-06T23:20:26.503Z,11.43
2019-01-06T23:23:10.555Z,11.20
2019-01-06T23:25:58.974Z,10.70
2019-01-06T23:28:47.156Z,10.17
2019-01-06T23:31:25.033Z,10.10
2019-01-06T23:33:57.018Z,8.63
2019-01-06T23:36:29.365Z,8.73
2019-01-06T23:39:04.332Z,10.10
2019-01-06T23:41:36.338Z,8.77
2019-01-06T23:44:14.330Z,10.30
2019-01-06T23:46:49.609Z,7.03
2019-01-06T23:49:24.854Z,7.57
2019-01-06T23:52:13.365Z,7.17
2019-01-06T23:55:00.929Z,7.27
2019-01-06T23:57:33.303Z,8.10
